Terminal Aerodrome Forecast
Issued by NWS

Home | Current Version | Previous Version | Text Only | Print | Product List | Glossary On
Versions: 1 2 3 4 5 6 7 8 9 10 11 12 13 14 15 16 17 18 19 20 21 22 23 24 25
000
FTUS45 KGJT 232341
TAFEGE
TAF
KEGE 232341Z 2400/2424 00000KT P6SM FEW035 SCT045 OVC070
     FM240700 22006KT 3SM -SN BR BKN025
     FM241200 22007KT P6SM BKN040
     FM241700 29002KT 1SM -SN BR OVC015
      AMD LTD TO CLD VIS AND WIND 2406/2414=

USA.gov is the U.S. government's official web portal to all federal, state and local government web resources and services.